sensor_id;sensor_type;location;lat;lon;timestamp;P1;durP1;ratioP1;P2;durP2;ratioP2
70744;SDS011;59284;31.390;34.904;2023-03-01T00:01:55;19.73;;;6.90;;
70744;SDS011;59284;31.390;34.904;2023-03-01T00:04:20;14.85;;;5.18;;
70744;SDS011;59284;31.390;34.904;2023-03-01T00:06:46;8.77;;;5.60;;
70744;SDS011;59284;31.390;34.904;2023-03-01T00:09:15;9.32;;;5.47;;
70744;SDS011;59284;31.390;34.904;2023-03-01T00:11:40;13.27;;;6.30;;
70744;SDS011;59284;31.390;34.904;2023-03-01T00:14:06;14.15;;;5.57;;
70744;SDS011;59284;31.390;34.904;2023-03-01T00:16:38;7.32;;;3.60;;
70744;SDS011;59284;31.390;34.904;2023-03-01T00:19:04;16.43;;;6.00;;
70744;SDS011;59284;31.390;34.904;2023-03-01T00:21:30;8.02;;;4.57;;
70744;SDS011;59284;31.390;34.904;2023-03-01T00:23:56;13.75;;;5.30;;
70744;SDS011;59284;31.390;34.904;2023-03-01T00:26:23;7.45;;;4.47;;
70744;SDS011;59284;31.390;34.904;2023-03-01T00:28:49;11.27;;;5.57;;
70744;SDS011;59284;31.390;34.904;2023-03-01T00:31:16;8.85;;;4.28;;
70744;SDS011;59284;31.390;34.904;2023-03-01T00:33:42;14.52;;;4.68;;
70744;SDS011;59284;31.390;34.904;2023-03-01T00:36:08;18.13;;;5.63;;
70744;SDS011;59284;31.390;34.904;2023-03-01T00:38:35;10.10;;;4.15;;
70744;SDS011;59284;31.390;34.904;2023-03-01T00:41:08;11.93;;;5.85;;
70744;SDS011;59284;31.390;34.904;2023-03-01T00:43:34;9.10;;;5.82;;
70744;SDS011;59284;31.390;34.904;2023-03-01T00:46:05;10.47;;;5.97;;
70744;SDS011;59284;31.390;34.904;2023-03-01T00:48:31;13.15;;;4.70;;
70744;SDS011;59284;31.390;34.904;2023-03-01T00:50:56;6.07;;;3.65;;
70744;SDS011;59284;31.390;34.904;2023-03-01T00:53:22;5.87;;;3.63;;
70744;SDS011;59284;31.390;34.904;2023-03-01T00:55:47;10.07;;;4.10;;
70744;SDS011;59284;31.390;34.904;2023-03-01T00:58:13;9.97;;;4.37;;
70744;SDS011;59284;31.390;34.904;2023-03-01T01:00:38;15.23;;;4.90;;
70744;SDS011;59284;31.390;34.904;2023-03-01T01:03:04;12.47;;;6.00;;
70744;SDS011;59284;31.390;34.904;2023-03-01T01:05:29;10.63;;;6.17;;
70744;SDS011;59284;31.390;34.904;2023-03-01T01:07:54;9.38;;;5.95;;
70744;SDS011;59284;31.390;34.904;2023-03-01T01:10:20;15.07;;;5.70;;
70744;SDS011;59284;31.390;34.904;2023-03-01T01:12:46;11.63;;;6.60;;
70744;SDS011;59284;31.390;34.904;2023-03-01T01:15:11;15.18;;;5.45;;
70744;SDS011;59284;31.390;34.904;2023-03-01T01:17:39;12.25;;;5.68;;
70744;SDS011;59284;31.390;34.904;2023-03-01T01:20:05;14.80;;;7.17;;
70744;SDS011;59284;31.390;34.904;2023-03-01T01:22:30;16.58;;;5.22;;
70744;SDS011;59284;31.390;34.904;2023-03-01T01:24:56;11.33;;;5.87;;
70744;SDS011;59284;31.390;34.904;2023-03-01T01:27:21;8.73;;;4.63;;
70744;SDS011;59284;31.390;34.904;2023-03-01T01:29:47;10.37;;;5.50;;
70744;SDS011;59284;31.390;34.904;2023-03-01T01:32:12;11.00;;;5.33;;
70744;SDS011;59284;31.390;34.904;2023-03-01T01:34:38;11.85;;;5.90;;
70744;SDS011;59284;31.390;34.904;2023-03-01T01:37:03;11.17;;;5.90;;
70744;SDS011;59284;31.390;34.904;2023-03-01T01:39:33;11.45;;;4.97;;
70744;SDS011;59284;31.390;34.904;2023-03-01T01:41:58;12.13;;;5.50;;
70744;SDS011;59284;31.390;34.904;2023-03-01T01:44:25;9.15;;;4.32;;
70744;SDS011;59284;31.390;34.904;2023-03-01T01:46:58;12.10;;;4.72;;
70744;SDS011;59284;31.390;34.904;2023-03-01T01:51:59;9.20;;;4.35;;
70744;SDS011;59284;31.390;34.904;2023-03-01T01:54:27;11.67;;;6.27;;
70744;SDS011;59284;31.390;34.904;2023-03-01T01:56:56;10.32;;;5.43;;
70744;SDS011;59284;31.390;34.904;2023-03-01T01:59:23;21.05;;;4.90;;
70744;SDS011;59284;31.390;34.904;2023-03-01T02:01:50;16.23;;;6.45;;
70744;SDS011;59284;31.390;34.904;2023-03-01T02:04:15;17.43;;;5.73;;
70744;SDS011;59284;31.390;34.904;2023-03-01T02:06:41;10.27;;;5.33;;
70744;SDS011;59284;31.390;34.904;2023-03-01T02:09:13;14.80;;;4.63;;
70744;SDS011;59284;31.390;34.904;2023-03-01T02:11:38;8.03;;;4.37;;
70744;SDS011;59284;31.390;34.904;2023-03-01T02:14:04;14.68;;;6.03;;
70744;SDS011;59284;31.390;34.904;2023-03-01T02:16:30;9.35;;;4.72;;
70744;SDS011;59284;31.390;34.904;2023-03-01T02:18:56;8.60;;;4.23;;
70744;SDS011;59284;31.390;34.904;2023-03-01T02:23:47;13.23;;;6.07;;
70744;SDS011;59284;31.390;34.904;2023-03-01T02:28:56;16.70;;;5.38;;
70744;SDS011;59284;31.390;34.904;2023-03-01T02:31:22;12.17;;;6.47;;
70744;SDS011;59284;31.390;34.904;2023-03-01T02:34:06;8.60;;;5.17;;
70744;SDS011;59284;31.390;34.904;2023-03-01T02:36:36;13.88;;;4.88;;
70744;SDS011;59284;31.390;34.904;2023-03-01T02:39:04;15.30;;;5.68;;
70744;SDS011;59284;31.390;34.904;2023-03-01T02:41:32;11.82;;;5.70;;
70744;SDS011;59284;31.390;34.904;2023-03-01T02:44:00;7.27;;;3.23;;
70744;SDS011;59284;31.390;34.904;2023-03-01T02:46:25;9.90;;;5.40;;
70744;SDS011;59284;31.390;34.904;2023-03-01T02:48:52;9.30;;;4.93;;
70744;SDS011;59284;31.390;34.904;2023-03-01T02:56:38;12.02;;;4.53;;
70744;SDS011;59284;31.390;34.904;2023-03-01T02:59:04;9.63;;;5.83;;
70744;SDS011;59284;31.390;34.904;2023-03-01T03:01:30;8.52;;;4.68;;
70744;SDS011;59284;31.390;34.904;2023-03-01T03:04:05;7.57;;;4.70;;
70744;SDS011;59284;31.390;34.904;2023-03-01T03:06:30;12.35;;;6.40;;
70744;SDS011;59284;31.390;34.904;2023-03-01T03:08:56;8.97;;;5.30;;
70744;SDS011;59284;31.390;34.904;2023-03-01T03:11:21;9.47;;;4.30;;
70744;SDS011;59284;31.390;34.904;2023-03-01T03:13:47;16.70;;;3.53;;
70744;SDS011;59284;31.390;34.904;2023-03-01T03:16:13;13.80;;;6.23;;
70744;SDS011;59284;31.390;34.904;2023-03-01T03:18:38;11.98;;;5.82;;
70744;SDS011;59284;31.390;34.904;2023-03-01T03:21:06;11.30;;;6.00;;
70744;SDS011;59284;31.390;34.904;2023-03-01T03:23:32;15.38;;;6.00;;
70744;SDS011;59284;31.390;34.904;2023-03-01T03:25:58;9.90;;;3.80;;
70744;SDS011;59284;31.390;34.904;2023-03-01T03:28:23;11.00;;;4.90;;
70744;SDS011;59284;31.390;34.904;2023-03-01T03:30:49;7.60;;;3.65;;
70744;SDS011;59284;31.390;34.904;2023-03-01T03:33:14;13.13;;;6.17;;
70744;SDS011;59284;31.390;34.904;2023-03-01T03:35:41;9.63;;;4.30;;
70744;SDS011;59284;31.390;34.904;2023-03-01T03:38:08;10.95;;;4.13;;
70744;SDS011;59284;31.390;34.904;2023-03-01T03:40:41;14.87;;;7.07;;
70744;SDS011;59284;31.390;34.904;2023-03-01T03:43:07;10.55;;;5.35;;
70744;SDS011;59284;31.390;34.904;2023-03-01T03:45:33;5.55;;;3.17;;
70744;SDS011;59284;31.390;34.904;2023-03-01T03:48:00;8.07;;;3.63;;
70744;SDS011;59284;31.390;34.904;2023-03-01T03:50:26;6.25;;;4.20;;
70744;SDS011;59284;31.390;34.904;2023-03-01T03:52:51;9.70;;;4.87;;
70744;SDS011;59284;31.390;34.904;2023-03-01T03:55:17;8.55;;;3.58;;
70744;SDS011;59284;31.390;34.904;2023-03-01T03:57:45;14.13;;;5.10;;
70744;SDS011;59284;31.390;34.904;2023-03-01T04:00:17;10.88;;;5.38;;
70744;SDS011;59284;31.390;34.904;2023-03-01T04:02:43;15.27;;;5.75;;
70744;SDS011;59284;31.390;34.904;2023-03-01T04:05:09;6.97;;;4.00;;
70744;SDS011;59284;31.390;34.904;2023-03-01T04:07:35;12.68;;;3.50;;
70744;SDS011;59284;31.390;34.904;2023-03-01T04:10:05;15.00;;;5.47;;
70744;SDS011;59284;31.390;34.904;2023-03-01T04:12:32;11.23;;;4.90;;
70744;SDS011;59284;31.390;34.904;2023-03-01T04:14:59;11.43;;;4.72;;
70744;SDS011;59284;31.390;34.904;2023-03-01T04:17:25;12.00;;;3.70;;
70744;SDS011;59284;31.390;34.904;2023-03-01T04:19:50;10.10;;;5.47;;
70744;SDS011;59284;31.390;34.904;2023-03-01T04:22:16;11.37;;;5.27;;
70744;SDS011;59284;31.390;34.904;2023-03-01T04:24:46;14.02;;;4.10;;
70744;SDS011;59284;31.390;34.904;2023-03-01T04:27:11;7.00;;;3.55;;
70744;SDS011;59284;31.390;34.904;2023-03-01T04:29:37;8.77;;;3.80;;
70744;SDS011;59284;31.390;34.904;2023-03-01T04:32:02;11.10;;;5.10;;
70744;SDS011;59284;31.390;34.904;2023-03-01T04:34:28;12.40;;;5.05;;
70744;SDS011;59284;31.390;34.904;2023-03-01T04:36:54;5.63;;;2.63;;
70744;SDS011;59284;31.390;34.904;2023-03-01T04:39:19;19.17;;;5.95;;
70744;SDS011;59284;31.390;34.904;2023-03-01T04:41:45;14.73;;;6.30;;
70744;SDS011;59284;31.390;34.904;2023-03-01T04:44:10;11.80;;;6.17;;
70744;SDS011;59284;31.390;34.904;2023-03-01T04:46:36;12.73;;;5.22;;
70744;SDS011;59284;31.390;34.904;2023-03-01T04:49:02;15.17;;;5.20;;
70744;SDS011;59284;31.390;34.904;2023-03-01T04:51:27;11.75;;;6.47;;
70744;SDS011;59284;31.390;34.904;2023-03-01T04:53:53;16.80;;;6.10;;
70744;SDS011;59284;31.390;34.904;2023-03-01T04:56:18;12.90;;;4.37;;
70744;SDS011;59284;31.390;34.904;2023-03-01T04:58:44;12.10;;;6.20;;
70744;SDS011;59284;31.390;34.904;2023-03-01T05:01:17;13.23;;;5.43;;
70744;SDS011;59284;31.390;34.904;2023-03-01T05:03:44;9.88;;;4.70;;
70744;SDS011;59284;31.390;34.904;2023-03-01T05:06:10;12.32;;;5.10;;
70744;SDS011;59284;31.390;34.904;2023-03-01T05:08:36;11.75;;;5.47;;
70744;SDS011;59284;31.390;34.904;2023-03-01T05:11:05;11.00;;;4.53;;
70744;SDS011;59284;31.390;34.904;2023-03-01T05:13:31;10.07;;;5.55;;
70744;SDS011;59284;31.390;34.904;2023-03-01T05:15:58;17.63;;;4.78;;
70744;SDS011;59284;31.390;34.904;2023-03-01T05:18:24;16.35;;;5.90;;
70744;SDS011;59284;31.390;34.904;2023-03-01T05:20:53;11.15;;;4.45;;
70744;SDS011;59284;31.390;34.904;2023-03-01T05:23:21;10.07;;;5.57;;
70744;SDS011;59284;31.390;34.904;2023-03-01T05:25:47;9.02;;;4.90;;
70744;SDS011;59284;31.390;34.904;2023-03-01T05:28:13;16.03;;;7.00;;
70744;SDS011;59284;31.390;34.904;2023-03-01T05:30:39;10.00;;;5.30;;
70744;SDS011;59284;31.390;34.904;2023-03-01T05:33:05;8.95;;;4.95;;
70744;SDS011;59284;31.390;34.904;2023-03-01T05:35:35;10.40;;;5.28;;
70744;SDS011;59284;31.390;34.904;2023-03-01T05:38:01;8.40;;;5.22;;
70744;SDS011;59284;31.390;34.904;2023-03-01T05:40:27;13.57;;;4.93;;
70744;SDS011;59284;31.390;34.904;2023-03-01T05:42:53;7.27;;;4.77;;
70744;SDS011;59284;31.390;34.904;2023-03-01T05:45:22;15.32;;;6.25;;
70744;SDS011;59284;31.390;34.904;2023-03-01T05:47:48;9.07;;;4.38;;
70744;SDS011;59284;31.390;34.904;2023-03-01T05:52:49;7.28;;;3.95;;
70744;SDS011;59284;31.390;34.904;2023-03-01T05:55:16;10.80;;;4.47;;
70744;SDS011;59284;31.390;34.904;2023-03-01T05:57:41;17.85;;;6.15;;
70744;SDS011;59284;31.390;34.904;2023-03-01T06:00:07;15.20;;;5.20;;
70744;SDS011;59284;31.390;34.904;2023-03-01T06:02:33;11.65;;;4.75;;
70744;SDS011;59284;31.390;34.904;2023-03-01T06:04:58;12.63;;;6.70;;
70744;SDS011;59284;31.390;34.904;2023-03-01T06:07:24;14.97;;;4.73;;
70744;SDS011;59284;31.390;34.904;2023-03-01T06:09:49;8.55;;;4.18;;
70744;SDS011;59284;31.390;34.904;2023-03-01T06:12:15;12.83;;;5.67;;
70744;SDS011;59284;31.390;34.904;2023-03-01T06:14:40;12.40;;;6.07;;
70744;SDS011;59284;31.390;34.904;2023-03-01T06:17:05;10.13;;;3.50;;
70744;SDS011;59284;31.390;34.904;2023-03-01T06:19:31;5.80;;;3.45;;
70744;SDS011;59284;31.390;34.904;2023-03-01T06:21:56;13.23;;;4.37;;
70744;SDS011;59284;31.390;34.904;2023-03-01T06:24:22;11.70;;;3.53;;
70744;SDS011;59284;31.390;34.904;2023-03-01T06:26:48;15.02;;;5.30;;
70744;SDS011;59284;31.390;34.904;2023-03-01T06:29:13;12.70;;;5.80;;
70744;SDS011;59284;31.390;34.904;2023-03-01T06:31:39;11.18;;;4.18;;
70744;SDS011;59284;31.390;34.904;2023-03-01T06:34:05;15.10;;;5.20;;
70744;SDS011;59284;31.390;34.904;2023-03-01T06:36:30;14.82;;;6.25;;
70744;SDS011;59284;31.390;34.904;2023-03-01T06:38:56;19.53;;;6.03;;
70744;SDS011;59284;31.390;34.904;2023-03-01T06:41:21;10.80;;;4.50;;
70744;SDS011;59284;31.390;34.904;2023-03-01T06:43:47;14.60;;;5.17;;
70744;SDS011;59284;31.390;34.904;2023-03-01T06:46:12;12.95;;;5.60;;
70744;SDS011;59284;31.390;34.904;2023-03-01T06:48:37;7.93;;;4.30;;
70744;SDS011;59284;31.390;34.904;2023-03-01T06:51:03;10.73;;;4.93;;
70744;SDS011;59284;31.390;34.904;2023-03-01T06:53:29;11.60;;;5.30;;
70744;SDS011;59284;31.390;34.904;2023-03-01T06:55:57;8.30;;;5.38;;
70744;SDS011;59284;31.390;34.904;2023-03-01T06:58:25;12.05;;;4.47;;
70744;SDS011;59284;31.390;34.904;2023-03-01T07:00:50;11.13;;;5.17;;
70744;SDS011;59284;31.390;34.904;2023-03-01T07:03:16;9.05;;;4.78;;
70744;SDS011;59284;31.390;34.904;2023-03-01T07:05:41;12.50;;;5.00;;
70744;SDS011;59284;31.390;34.904;2023-03-01T07:08:07;11.43;;;5.77;;
70744;SDS011;59284;31.390;34.904;2023-03-01T07:10:32;20.60;;;5.80;;
70744;SDS011;59284;31.390;34.904;2023-03-01T07:12:58;6.97;;;2.87;;
70744;SDS011;59284;31.390;34.904;2023-03-01T07:15:24;12.32;;;5.13;;
70744;SDS011;59284;31.390;34.904;2023-03-01T07:17:49;7.87;;;4.33;;
70744;SDS011;59284;31.390;34.904;2023-03-01T07:20:16;13.38;;;4.13;;
70744;SDS011;59284;31.390;34.904;2023-03-01T07:22:42;8.65;;;3.63;;
70744;SDS011;59284;31.390;34.904;2023-03-01T07:25:07;11.70;;;3.97;;
70744;SDS011;59284;31.390;34.904;2023-03-01T07:27:33;14.93;;;5.40;;
70744;SDS011;59284;31.390;34.904;2023-03-01T07:29:58;12.23;;;5.57;;
70744;SDS011;59284;31.390;34.904;2023-03-01T07:32:24;10.65;;;5.43;;
70744;SDS011;59284;31.390;34.904;2023-03-01T07:34:50;14.47;;;4.57;;
70744;SDS011;59284;31.390;34.904;2023-03-01T07:37:16;14.20;;;5.80;;
70744;SDS011;59284;31.390;34.904;2023-03-01T07:39:41;8.03;;;3.87;;
70744;SDS011;59284;31.390;34.904;2023-03-01T07:42:07;19.77;;;6.03;;
70744;SDS011;59284;31.390;34.904;2023-03-01T07:44:33;11.50;;;6.07;;
70744;SDS011;59284;31.390;34.904;2023-03-01T07:46:59;12.88;;;4.57;;
70744;SDS011;59284;31.390;34.904;2023-03-01T07:49:25;9.80;;;4.90;;
70744;SDS011;59284;31.390;34.904;2023-03-01T07:51:51;9.57;;;5.13;;
70744;SDS011;59284;31.390;34.904;2023-03-01T07:54:17;9.80;;;4.47;;
70744;SDS011;59284;31.390;34.904;2023-03-01T07:56:43;11.43;;;5.80;;
70744;SDS011;59284;31.390;34.904;2023-03-01T07:59:08;11.33;;;4.80;;
70744;SDS011;59284;31.390;34.904;2023-03-01T08:01:34;11.82;;;5.03;;
70744;SDS011;59284;31.390;34.904;2023-03-01T08:03:59;14.20;;;5.73;;
70744;SDS011;59284;31.390;34.904;2023-03-01T08:06:25;13.53;;;4.80;;
70744;SDS011;59284;31.390;34.904;2023-03-01T08:08:50;12.35;;;4.50;;
70744;SDS011;59284;31.390;34.904;2023-03-01T08:11:16;12.77;;;5.57;;
70744;SDS011;59284;31.390;34.904;2023-03-01T08:13:42;14.63;;;5.70;;
70744;SDS011;59284;31.390;34.904;2023-03-01T08:16:10;7.90;;;4.00;;
70744;SDS011;59284;31.390;34.904;2023-03-01T08:18:35;9.80;;;4.32;;
70744;SDS011;59284;31.390;34.904;2023-03-01T08:21:02;10.83;;;5.80;;
70744;SDS011;59284;31.390;34.904;2023-03-01T08:23:27;13.32;;;4.90;;
70744;SDS011;59284;31.390;34.904;2023-03-01T08:25:53;11.33;;;5.93;;
70744;SDS011;59284;31.390;34.904;2023-03-01T08:28:18;11.80;;;5.30;;
70744;SDS011;59284;31.390;34.904;2023-03-01T08:30:44;5.67;;;3.83;;
70744;SDS011;59284;31.390;34.904;2023-03-01T08:33:09;13.37;;;6.13;;
70744;SDS011;59284;31.390;34.904;2023-03-01T08:35:35;7.93;;;4.00;;
70744;SDS011;59284;31.390;34.904;2023-03-01T08:38:00;19.38;;;5.18;;
70744;SDS011;59284;31.390;34.904;2023-03-01T08:40:25;12.03;;;6.00;;
70744;SDS011;59284;31.390;34.904;2023-03-01T08:42:51;7.67;;;4.03;;
70744;SDS011;59284;31.390;34.904;2023-03-01T08:45:16;7.97;;;4.85;;
70744;SDS011;59284;31.390;34.904;2023-03-01T08:47:43;11.50;;;5.65;;
70744;SDS011;59284;31.390;34.904;2023-03-01T08:50:10;7.17;;;4.00;;
70744;SDS011;59284;31.390;34.904;2023-03-01T08:52:35;16.10;;;5.68;;
70744;SDS011;59284;31.390;34.904;2023-03-01T08:55:01;15.93;;;5.00;;
70744;SDS011;59284;31.390;34.904;2023-03-01T08:57:26;14.50;;;5.73;;
70744;SDS011;59284;31.390;34.904;2023-03-01T08:59:52;15.93;;;6.22;;
70744;SDS011;59284;31.390;34.904;2023-03-01T09:02:17;9.87;;;4.27;;
70744;SDS011;59284;31.390;34.904;2023-03-01T09:04:44;13.27;;;6.03;;
70744;SDS011;59284;31.390;34.904;2023-03-01T09:07:09;20.27;;;5.20;;
70744;SDS011;59284;31.390;34.904;2023-03-01T09:09:35;9.98;;;5.60;;
70744;SDS011;59284;31.390;34.904;2023-03-01T09:12:01;10.10;;;4.90;;
70744;SDS011;59284;31.390;34.904;2023-03-01T09:14:26;9.13;;;5.27;;
70744;SDS011;59284;31.390;34.904;2023-03-01T09:16:52;13.50;;;5.85;;
70744;SDS011;59284;31.390;34.904;2023-03-01T09:19:18;11.67;;;5.17;;
70744;SDS011;59284;31.390;34.904;2023-03-01T09:21:43;10.53;;;5.27;;
70744;SDS011;59284;31.390;34.904;2023-03-01T09:24:18;9.85;;;5.20;;
70744;SDS011;59284;31.390;34.904;2023-03-01T09:26:44;10.10;;;5.43;;
70744;SDS011;59284;31.390;34.904;2023-03-01T09:29:12;7.70;;;3.65;;
70744;SDS011;59284;31.390;34.904;2023-03-01T09:31:39;9.87;;;4.70;;
70744;SDS011;59284;31.390;34.904;2023-03-01T09:34:05;6.82;;;2.83;;
70744;SDS011;59284;31.390;34.904;2023-03-01T09:36:30;12.57;;;5.75;;
70744;SDS011;59284;31.390;34.904;2023-03-01T09:38:59;8.47;;;4.27;;
70744;SDS011;59284;31.390;34.904;2023-03-01T09:41:44;14.88;;;6.50;;
70744;SDS011;59284;31.390;34.904;2023-03-01T09:46:38;12.70;;;5.20;;
70744;SDS011;59284;31.390;34.904;2023-03-01T09:49:10;11.25;;;5.28;;
70744;SDS011;59284;31.390;34.904;2023-03-01T09:51:36;13.82;;;5.70;;
70744;SDS011;59284;31.390;34.904;2023-03-01T09:54:05;13.97;;;5.43;;
70744;SDS011;59284;31.390;34.904;2023-03-01T09:56:38;15.40;;;5.90;;
70744;SDS011;59284;31.390;34.904;2023-03-01T10:04:23;17.80;;;6.25;;
70744;SDS011;59284;31.390;34.904;2023-03-01T10:07:00;17.00;;;6.10;;
70744;SDS011;59284;31.390;34.904;2023-03-01T10:09:28;14.82;;;6.03;;
70744;SDS011;59284;31.390;34.904;2023-03-01T10:11:55;23.15;;;6.22;;
70744;SDS011;59284;31.390;34.904;2023-03-01T10:16:51;13.88;;;5.40;;
70744;SDS011;59284;31.390;34.904;2023-03-01T10:19:38;16.98;;;5.75;;
70744;SDS011;59284;31.390;34.904;2023-03-01T10:22:09;15.52;;;5.53;;
70744;SDS011;59284;31.390;34.904;2023-03-01T10:24:36;13.50;;;5.40;;
70744;SDS011;59284;31.390;34.904;2023-03-01T10:27:04;15.13;;;5.90;;
70744;SDS011;59284;31.390;34.904;2023-03-01T10:29:34;17.10;;;6.30;;
70744;SDS011;59284;31.390;34.904;2023-03-01T10:32:00;14.27;;;6.00;;
70744;SDS011;59284;31.390;34.904;2023-03-01T10:34:33;9.53;;;4.77;;
70744;SDS011;59284;31.390;34.904;2023-03-01T10:39:34;11.80;;;5.32;;
70744;SDS011;59284;31.390;34.904;2023-03-01T10:42:03;15.00;;;5.30;;
70744;SDS011;59284;31.390;34.904;2023-03-01T10:44:42;11.77;;;6.60;;
70744;SDS011;59284;31.390;34.904;2023-03-01T10:47:14;12.05;;;5.55;;
70744;SDS011;59284;31.390;34.904;2023-03-01T10:49:49;16.88;;;5.03;;
70744;SDS011;59284;31.390;34.904;2023-03-01T10:52:17;16.93;;;5.90;;
70744;SDS011;59284;31.390;34.904;2023-03-01T10:54:50;15.32;;;5.90;;
70744;SDS011;59284;31.390;34.904;2023-03-01T10:57:28;18.23;;;5.97;;
70744;SDS011;59284;31.390;34.904;2023-03-01T11:00:00;11.85;;;5.30;;
70744;SDS011;59284;31.390;34.904;2023-03-01T11:02:29;15.02;;;6.28;;
70744;SDS011;59284;31.390;34.904;2023-03-01T11:07:55;13.68;;;6.18;;
70744;SDS011;59284;31.390;34.904;2023-03-01T11:25:46;18.02;;;7.18;;
70744;SDS011;59284;31.390;34.904;2023-03-01T11:28:16;13.43;;;6.57;;
70744;SDS011;59284;31.390;34.904;2023-03-01T11:31:04;18.67;;;7.57;;
70744;SDS011;59284;31.390;34.904;2023-03-01T11:36:06;12.13;;;6.78;;
70744;SDS011;59284;31.390;34.904;2023-03-01T11:38:36;20.88;;;7.25;;
70744;SDS011;59284;31.390;34.904;2023-03-01T11:41:08;10.07;;;5.57;;
70744;SDS011;59284;31.390;34.904;2023-03-01T11:43:45;13.67;;;6.13;;
70744;SDS011;59284;31.390;34.904;2023-03-01T11:56:59;13.07;;;6.32;;
70744;SDS011;59284;31.390;34.904;2023-03-01T12:10:26;13.98;;;6.55;;
70744;SDS011;59284;31.390;34.904;2023-03-01T12:12:58;13.63;;;7.40;;
70744;SDS011;59284;31.390;34.904;2023-03-01T12:30:20;17.90;;;6.70;;
70744;SDS011;59284;31.390;34.904;2023-03-01T12:36:25;15.30;;;7.20;;
70744;SDS011;59284;31.390;34.904;2023-03-01T12:41:51;16.70;;;6.88;;
70744;SDS011;59284;31.390;34.904;2023-03-01T12:44:43;18.45;;;7.25;;
70744;SDS011;59284;31.390;34.904;2023-03-01T12:49:57;14.37;;;6.60;;
70744;SDS011;59284;31.390;34.904;2023-03-01T12:52:39;13.98;;;6.30;;
70744;SDS011;59284;31.390;34.904;2023-03-01T12:58:08;18.20;;;6.30;;
70744;SDS011;59284;31.390;34.904;2023-03-01T13:06:50;15.38;;;6.50;;
70744;SDS011;59284;31.390;34.904;2023-03-01T13:11:57;12.93;;;6.22;;
70744;SDS011;59284;31.390;34.904;2023-03-01T13:16:49;20.60;;;6.30;;
70744;SDS011;59284;31.390;34.904;2023-03-01T13:19:16;12.52;;;7.15;;
70744;SDS011;59284;31.390;34.904;2023-03-01T13:21:47;13.32;;;6.50;;
70744;SDS011;59284;31.390;34.904;2023-03-01T13:32:36;15.30;;;6.40;;
70744;SDS011;59284;31.390;34.904;2023-03-01T13:37:40;15.20;;;6.70;;
70744;SDS011;59284;31.390;34.904;2023-03-01T13:42:55;13.73;;;6.40;;
70744;SDS011;59284;31.390;34.904;2023-03-01T13:48:25;16.40;;;6.22;;
70744;SDS011;59284;31.390;34.904;2023-03-01T13:50:51;17.57;;;7.07;;
70744;SDS011;59284;31.390;34.904;2023-03-01T13:53:22;12.32;;;6.47;;
70744;SDS011;59284;31.390;34.904;2023-03-01T13:55:54;16.77;;;7.13;;
70744;SDS011;59284;31.390;34.904;2023-03-01T13:58:31;15.20;;;6.47;;
70744;SDS011;59284;31.390;34.904;2023-03-01T14:01:05;18.45;;;7.15;;
70744;SDS011;59284;31.390;34.904;2023-03-01T14:03:34;14.93;;;6.80;;
70744;SDS011;59284;31.390;34.904;2023-03-01T14:06:13;16.63;;;6.30;;
70744;SDS011;59284;31.390;34.904;2023-03-01T14:08:46;16.50;;;6.47;;
70744;SDS011;59284;31.390;34.904;2023-03-01T14:20:20;12.32;;;6.70;;
70744;SDS011;59284;31.390;34.904;2023-03-01T14:22:48;15.48;;;6.05;;
70744;SDS011;59284;31.390;34.904;2023-03-01T14:27:51;16.30;;;7.15;;
70744;SDS011;59284;31.390;34.904;2023-03-01T14:30:27;15.40;;;6.67;;
70744;SDS011;59284;31.390;34.904;2023-03-01T14:32:58;15.18;;;6.65;;
70744;SDS011;59284;31.390;34.904;2023-03-01T14:35:33;17.88;;;7.15;;
70744;SDS011;59284;31.390;34.904;2023-03-01T14:38:00;20.80;;;7.32;;
70744;SDS011;59284;31.390;34.904;2023-03-01T14:40:30;19.80;;;7.53;;
70744;SDS011;59284;31.390;34.904;2023-03-01T14:42:59;26.13;;;8.17;;
70744;SDS011;59284;31.390;34.904;2023-03-01T14:45:26;19.67;;;7.03;;
70744;SDS011;59284;31.390;34.904;2023-03-01T14:47:53;20.80;;;6.78;;
70744;SDS011;59284;31.390;34.904;2023-03-01T14:52:52;19.80;;;7.85;;
70744;SDS011;59284;31.390;34.904;2023-03-01T14:55:25;17.07;;;7.27;;
70744;SDS011;59284;31.390;34.904;2023-03-01T14:57:55;17.65;;;7.38;;
70744;SDS011;59284;31.390;34.904;2023-03-01T15:00:23;16.55;;;7.07;;
70744;SDS011;59284;31.390;34.904;2023-03-01T15:02:52;21.10;;;8.65;;
70744;SDS011;59284;31.390;34.904;2023-03-01T15:05:23;21.58;;;8.52;;
70744;SDS011;59284;31.390;34.904;2023-03-01T15:08:00;21.13;;;8.33;;
70744;SDS011;59284;31.390;34.904;2023-03-01T15:10:28;22.33;;;7.97;;
70744;SDS011;59284;31.390;34.904;2023-03-01T15:12:56;22.15;;;7.85;;
70744;SDS011;59284;31.390;34.904;2023-03-01T15:15:40;24.02;;;7.65;;
70744;SDS011;59284;31.390;34.904;2023-03-01T15:18:17;19.38;;;7.80;;
70744;SDS011;59284;31.390;34.904;2023-03-01T15:20:45;27.00;;;8.33;;
70744;SDS011;59284;31.390;34.904;2023-03-01T15:25:45;20.92;;;8.60;;
70744;SDS011;59284;31.390;34.904;2023-03-01T15:28:12;31.83;;;8.87;;
70744;SDS011;59284;31.390;34.904;2023-03-01T15:30:44;30.20;;;9.30;;
70744;SDS011;59284;31.390;34.904;2023-03-01T15:33:17;18.50;;;7.97;;
70744;SDS011;59284;31.390;34.904;2023-03-01T15:35:48;17.83;;;7.95;;
70744;SDS011;59284;31.390;34.904;2023-03-01T15:40:59;19.87;;;7.80;;
70744;SDS011;59284;31.390;34.904;2023-03-01T15:43:39;23.10;;;8.18;;
70744;SDS011;59284;31.390;34.904;2023-03-01T15:46:15;23.83;;;7.60;;
70744;SDS011;59284;31.390;34.904;2023-03-01T15:48:47;31.15;;;8.15;;
70744;SDS011;59284;31.390;34.904;2023-03-01T15:51:14;18.10;;;7.80;;
70744;SDS011;59284;31.390;34.904;2023-03-01T15:53:41;23.77;;;7.87;;
70744;SDS011;59284;31.390;34.904;2023-03-01T15:56:14;27.05;;;9.52;;
70744;SDS011;59284;31.390;34.904;2023-03-01T15:58:40;22.75;;;8.57;;
70744;SDS011;59284;31.390;34.904;2023-03-01T16:01:13;20.90;;;8.20;;
70744;SDS011;59284;31.390;34.904;2023-03-01T16:03:42;25.33;;;7.63;;
70744;SDS011;59284;31.390;34.904;2023-03-01T16:06:11;22.23;;;7.53;;
70744;SDS011;59284;31.390;34.904;2023-03-01T16:08:38;22.85;;;8.27;;
70744;SDS011;59284;31.390;34.904;2023-03-01T16:11:04;19.85;;;8.25;;
70744;SDS011;59284;31.390;34.904;2023-03-01T16:13:31;17.33;;;7.00;;
70744;SDS011;59284;31.390;34.904;2023-03-01T16:15:58;15.68;;;7.78;;
70744;SDS011;59284;31.390;34.904;2023-03-01T16:18:24;18.08;;;6.93;;
70744;SDS011;59284;31.390;34.904;2023-03-01T16:20:49;21.40;;;7.90;;
70744;SDS011;59284;31.390;34.904;2023-03-01T16:23:15;16.67;;;8.25;;
70744;SDS011;59284;31.390;34.904;2023-03-01T16:25:41;19.35;;;7.82;;
70744;SDS011;59284;31.390;34.904;2023-03-01T16:28:07;23.30;;;8.77;;
70744;SDS011;59284;31.390;34.904;2023-03-01T16:30:35;18.17;;;7.43;;
70744;SDS011;59284;31.390;34.904;2023-03-01T16:33:02;24.05;;;9.30;;
70744;SDS011;59284;31.390;34.904;2023-03-01T16:35:33;19.92;;;8.65;;
70744;SDS011;59284;31.390;34.904;2023-03-01T16:38:05;20.65;;;8.80;;
70744;SDS011;59284;31.390;34.904;2023-03-01T16:40:31;21.37;;;7.83;;
70744;SDS011;59284;31.390;34.904;2023-03-01T16:42:58;19.55;;;7.65;;
70744;SDS011;59284;31.390;34.904;2023-03-01T16:45:33;20.95;;;8.07;;
70744;SDS011;59284;31.390;34.904;2023-03-01T16:48:01;19.08;;;6.93;;
70744;SDS011;59284;31.390;34.904;2023-03-01T16:50:29;28.05;;;8.27;;
70744;SDS011;59284;31.390;34.904;2023-03-01T16:52:56;17.20;;;7.37;;